Terminal Aerodrome Forecast
Issued by NWS Omaha/Valley, NE

Home | Current Version | Previous Version | Graphics & Text | Print | Product List | Glossary On
Versions: 1 2 3 4 5 6 7 8 9 10 11 12 13 14 15 16 17 18 19 20 21 22 23 24 25 26
000
FTUS43 KOAX 252322
TAFOFK
TAF
KOFK 252322Z 2600/2624 25003KT P6SM SKC
     FM260200 VRB05KT P6SM SCT250
     FM260900 25005KT P6SM BKN120
     FM261200 18005KT P6SM VCSH BKN070
     FM261500 35006KT P6SM SCT250
     FM261600 03007KT P6SM FEW250=

USA.gov is the U.S. government's official web portal to all federal, state and local government web resources and services.